GUCY/CKY METAR and TAF weather

Enter ICAO airport designator
Station Type Date Time Source
GUCY METAR 2021/07/29 00:00 UTC NOAA

GUCY 290000Z 29004KT 2000 RA BKN010 OVC090 24/24 Q1014 NOSIG


Station Type Date Time Source
GUCY Decoded METAR 2021/07/29 00:00 UTC NOAA

Conakry / Gbessia, Guinea (GUCY) 09-34N 013-37W 26M
Jul 28, 2021 - 08:00 PM EDT / 2021.07.29 0000 UTC
Wind: from the WNW (290 degrees) at 5 MPH (4 KT):0
Visibility: 1 mile(s):0
Sky conditions: overcast
Weather: rain
Temperature: 75 F (24 C)
Dew Point: 75 F (24 C)
Relative Humidity: 100%
Pressure (altimeter): 29.94 in. Hg (1014 hPa)
ob: GUCY 290000Z 29004KT 2000 RA BKN010 OVC090 24/24 Q1014 NOSIG
cycle: 0

Station Type Date Time Source
GUCY TAF 2021/07/28 18:15 UTC NOAA

TAF TAF GUCY 281700Z 2818/2924 24006KT 6000 -RA BKN013 BKN110 PROB30
TEMPO 2912/2918 12008KT 3000 -TSRA BKN012 FEW023CB OVC100

Example: see airport list